createdAt,value
2019-05-26T00:00:43.069Z,78.42
2019-05-26T00:01:43.035Z,78.23
2019-05-26T00:02:43.019Z,78.42
2019-05-26T00:03:43.006Z,78.42
2019-05-26T00:04:42.985Z,78.71
2019-05-26T00:05:42.973Z,78.90
2019-05-26T00:06:42.957Z,78.80
2019-05-26T00:07:42.942Z,78.71
2019-05-26T00:08:42.920Z,78.61
2019-05-26T00:09:42.904Z,78.71
2019-05-26T00:10:42.891Z,78.80
2019-05-26T00:11:42.876Z,78.61
2019-05-26T00:12:42.859Z,78.90
2019-05-26T00:13:42.847Z,78.71
2019-05-26T00:14:42.851Z,78.71
2019-05-26T00:15:42.830Z,78.71
2019-05-26T00:16:42.791Z,78.61
2019-05-26T00:17:42.773Z,78.61
2019-05-26T00:18:42.779Z,78.75
2019-05-26T00:19:42.750Z,78.75
2019-05-26T00:20:42.729Z,78.94
2019-05-26T00:21:42.724Z,78.65
2019-05-26T00:22:42.706Z,78.85
2019-05-26T00:23:42.676Z,78.85
2019-05-26T00:24:42.661Z,78.75
2019-05-26T00:25:42.646Z,78.75
2019-05-26T00:26:42.638Z,78.75
2019-05-26T00:27:42.628Z,79.41
2019-05-26T00:28:42.610Z,79.51
2019-05-26T00:29:42.598Z,79.32
2019-05-26T00:30:42.578Z,79.32
2019-05-26T00:31:42.558Z,79.22
2019-05-26T00:32:42.684Z,79.03
2019-05-26T00:33:42.525Z,79.13
2019-05-26T00:34:42.581Z,78.94
2019-05-26T00:35:42.488Z,79.51
2019-05-26T00:36:42.473Z,79.51
2019-05-26T00:37:50.744Z,79.60
2019-05-26T00:38:42.442Z,79.46
2019-05-26T00:39:42.432Z,79.55
2019-05-26T00:40:42.417Z,79.46
2019-05-26T00:41:42.500Z,79.41
2019-05-26T00:42:42.378Z,79.36
2019-05-26T00:43:42.365Z,79.36
2019-05-26T00:44:42.350Z,79.36
2019-05-26T00:45:42.339Z,79.27
2019-05-26T00:46:42.320Z,79.93
2019-05-26T00:47:42.301Z,79.64
2019-05-26T00:48:42.286Z,79.93
2019-05-26T00:49:42.271Z,79.36
2019-05-26T00:50:42.281Z,79.83
2019-05-26T00:51:42.233Z,79.64
2019-05-26T00:52:42.224Z,79.64
2019-05-26T00:53:42.203Z,79.64
2019-05-26T00:54:42.198Z,79.64
2019-05-26T00:55:42.177Z,79.64
2019-05-26T00:56:42.158Z,79.64
2019-05-26T00:57:42.149Z,79.46
2019-05-26T00:58:42.125Z,79.46
2019-05-26T00:59:42.133Z,79.64
2019-05-26T01:00:42.097Z,79.74
2019-05-26T01:01:42.130Z,79.74
2019-05-26T01:02:42.069Z,79.64
2019-05-26T01:03:42.049Z,80.12
2019-05-26T01:04:42.097Z,80.31
2019-05-26T01:05:42.035Z,80.31
2019-05-26T01:06:42.007Z,80.02
2019-05-26T01:07:41.994Z,80.12
2019-05-26T01:08:41.976Z,80.65
2019-05-26T01:09:41.962Z,80.18
2019-05-26T01:10:41.938Z,80.36
2019-05-26T01:11:41.922Z,80.18
2019-05-26T01:12:41.906Z,80.75
2019-05-26T01:13:41.894Z,80.36
2019-05-26T01:14:41.883Z,80.75
2019-05-26T01:15:41.863Z,80.46
2019-05-26T01:16:41.856Z,80.75
2019-05-26T01:17:41.832Z,81.13
2019-05-26T01:18:41.815Z,81.13
2019-05-26T01:19:41.798Z,81.03
2019-05-26T01:20:41.807Z,80.75
2019-05-26T01:21:41.770Z,81.13
2019-05-26T01:22:41.753Z,80.84
2019-05-26T01:23:41.751Z,81.23
2019-05-26T01:24:41.721Z,80.75
2019-05-26T01:25:41.705Z,81.60
2019-05-26T01:26:41.691Z,81.41
2019-05-26T01:27:41.680Z,81.23
2019-05-26T01:28:41.655Z,81.51
2019-05-26T01:29:41.647Z,81.60
2019-05-26T01:30:41.627Z,81.51
2019-05-26T01:31:41.617Z,81.60
2019-05-26T01:32:41.591Z,81.37
2019-05-26T01:33:41.681Z,81.47
2019-05-26T01:34:41.560Z,81.66
2019-05-26T01:35:41.546Z,81.56
2019-05-26T01:36:41.535Z,81.76
2019-05-26T01:37:41.515Z,81.85
2019-05-26T01:38:41.499Z,81.85
2019-05-26T01:39:41.482Z,81.56
2019-05-26T01:40:41.467Z,82.23
2019-05-26T01:41:41.454Z,82.32
2019-05-26T01:42:41.429Z,82.14
2019-05-26T01:43:41.418Z,82.14
2019-05-26T01:44:41.399Z,82.32
2019-05-26T01:45:41.384Z,82.04
2019-05-26T01:46:41.369Z,82.14
2019-05-26T01:47:41.369Z,82.23
2019-05-26T01:48:41.356Z,82.14
2019-05-26T01:49:41.320Z,82.32
2019-05-26T01:50:41.305Z,82.32
2019-05-26T01:51:41.289Z,82.42
2019-05-26T01:52:41.277Z,82.19
2019-05-26T01:53:41.256Z,82.67
2019-05-26T01:54:41.273Z,82.38
2019-05-26T01:55:41.243Z,82.28
2019-05-26T01:56:41.206Z,82.09
2019-05-26T01:57:41.195Z,82.28
2019-05-26T01:58:41.173Z,82.86
2019-05-26T01:59:41.162Z,82.76
2019-05-26T02:00:41.141Z,82.95
2019-05-26T02:01:41.123Z,83.04
2019-05-26T02:02:41.105Z,82.95
2019-05-26T02:03:41.101Z,82.76
2019-05-26T02:04:41.079Z,82.67
2019-05-26T02:05:41.062Z,82.76
2019-05-26T02:06:41.061Z,82.76
2019-05-26T02:07:41.021Z,82.57
2019-05-26T02:08:41.014Z,83.19
2019-05-26T02:09:40.992Z,83.10
2019-05-26T02:10:40.987Z,82.91
2019-05-26T02:11:40.961Z,83.00
2019-05-26T02:12:40.960Z,82.91
2019-05-26T02:13:40.927Z,83.10
2019-05-26T02:14:40.914Z,83.19
2019-05-26T02:15:40.894Z,83.29
2019-05-26T02:16:40.875Z,82.91
2019-05-26T02:17:40.862Z,83.58
2019-05-26T02:18:40.850Z,83.48
2019-05-26T02:19:40.831Z,83.39
2019-05-26T02:20:40.811Z,83.39
2019-05-26T02:21:40.793Z,83.67
2019-05-26T02:22:40.801Z,83.48
2019-05-26T02:23:40.762Z,83.67
2019-05-26T02:24:40.743Z,83.67
2019-05-26T02:25:40.735Z,83.39
2019-05-26T02:26:40.725Z,83.29
2019-05-26T02:27:40.697Z,83.67
2019-05-26T02:28:40.674Z,83.29
2019-05-26T02:29:40.663Z,83.48
2019-05-26T02:30:40.654Z,83.58
2019-05-26T02:31:40.640Z,83.86
2019-05-26T02:32:40.616Z,83.95
2019-05-26T02:33:40.596Z,83.95
2019-05-26T02:34:40.578Z,83.67
2019-05-26T02:35:40.638Z,83.86
2019-05-26T02:36:40.548Z,84.05
2019-05-26T02:37:40.530Z,83.76
2019-05-26T02:38:59.913Z,83.95
2019-05-26T02:39:40.498Z,84.14
2019-05-26T02:40:40.486Z,84.14
2019-05-26T02:41:40.474Z,83.67
2019-05-26T02:42:40.474Z,83.86
2019-05-26T02:43:40.433Z,84.24
2019-05-26T02:44:40.416Z,84.05
2019-05-26T02:45:40.393Z,83.86
2019-05-26T02:46:40.378Z,84.39
2019-05-26T02:47:40.359Z,84.14
2019-05-26T02:48:40.358Z,84.20
2019-05-26T02:49:40.347Z,84.58
2019-05-26T02:50:40.380Z,84.24
2019-05-26T02:51:40.302Z,84.52
2019-05-26T02:52:40.290Z,84.39
2019-05-26T02:53:40.263Z,84.48
2019-05-26T02:54:40.252Z,84.29
2019-05-26T02:55:40.248Z,84.48
2019-05-26T02:56:40.227Z,84.58
2019-05-26T02:57:40.199Z,84.20
2019-05-26T02:58:40.182Z,84.86
2019-05-26T02:59:40.174Z,84.77
2019-05-26T03:00:40.168Z,84.77
2019-05-26T03:01:58.199Z,84.48
2019-05-26T03:02:40.113Z,84.67
2019-05-26T03:03:40.091Z,84.48
2019-05-26T03:04:40.081Z,84.95
2019-05-26T03:05:40.071Z,84.86
2019-05-26T03:06:40.045Z,84.77
2019-05-26T03:07:40.028Z,84.95
2019-05-26T03:08:40.006Z,85.05
2019-05-26T03:09:39.996Z,84.95
2019-05-26T03:10:39.977Z,84.86
2019-05-26T03:11:39.986Z,84.67
2019-05-26T03:12:39.943Z,84.67
2019-05-26T03:13:39.938Z,84.77
2019-05-26T03:14:39.922Z,84.77
2019-05-26T03:15:39.909Z,84.77
2019-05-26T03:16:39.891Z,84.67
2019-05-26T03:17:39.863Z,85.05
2019-05-26T03:18:39.845Z,84.95
2019-05-26T03:19:39.825Z,84.95
2019-05-26T03:20:39.808Z,85.05
2019-05-26T03:21:39.788Z,85.34
2019-05-26T03:22:39.779Z,85.15
2019-05-26T03:23:39.760Z,84.95
2019-05-26T03:24:39.739Z,85.05
2019-05-26T03:25:39.729Z,85.34
2019-05-26T03:26:39.701Z,85.24
2019-05-26T03:27:39.688Z,85.43
2019-05-26T03:28:39.671Z,85.24
2019-05-26T03:29:39.664Z,85.53
2019-05-26T03:30:39.675Z,85.53
2019-05-26T03:31:39.666Z,85.53
2019-05-26T03:32:39.730Z,85.62
2019-05-26T03:33:39.594Z,85.43
2019-05-26T03:34:39.576Z,85.34
2019-05-26T03:35:39.569Z,85.91
2019-05-26T03:36:39.551Z,85.91
2019-05-26T03:37:39.538Z,86.00
2019-05-26T03:38:39.510Z,86.00
2019-05-26T03:39:45.143Z,86.00
2019-05-26T03:40:39.470Z,85.34
2019-05-26T03:41:39.454Z,85.72
2019-05-26T03:42:39.449Z,85.15
2019-05-26T03:43:39.423Z,85.15
2019-05-26T03:44:39.425Z,85.15
2019-05-26T03:45:39.392Z,85.91
2019-05-26T03:46:39.377Z,85.91
2019-05-26T03:47:39.365Z,85.81
2019-05-26T03:48:39.341Z,85.91
2019-05-26T03:49:39.315Z,85.53
2019-05-26T03:50:39.303Z,85.91
2019-05-26T03:51:39.286Z,85.81
2019-05-26T03:52:39.294Z,85.81
2019-05-26T03:53:39.277Z,85.62
2019-05-26T03:54:39.243Z,85.72
2019-05-26T03:55:39.221Z,85.72
2019-05-26T03:56:39.211Z,85.81
2019-05-26T03:57:39.188Z,85.72
2019-05-26T03:58:39.181Z,85.62
2019-05-26T03:59:39.152Z,85.43
2019-05-26T04:00:39.135Z,85.43
2019-05-26T04:01:39.134Z,85.91
2019-05-26T04:02:39.137Z,86.00
2019-05-26T04:03:39.101Z,85.81
2019-05-26T04:04:39.070Z,86.19
2019-05-26T04:05:39.054Z,85.91
2019-05-26T04:06:39.029Z,85.91
2019-05-26T04:07:39.019Z,86.00
2019-05-26T04:08:39.000Z,86.00
2019-05-26T04:09:38.985Z,85.72
2019-05-26T04:10:38.966Z,86.00
2019-05-26T04:11:38.946Z,86.29
2019-05-26T04:12:38.947Z,86.19
2019-05-26T04:13:38.913Z,86.19
2019-05-26T04:14:38.894Z,86.00
2019-05-26T04:15:38.884Z,86.29
2019-05-26T04:16:38.864Z,86.52
2019-05-26T04:17:38.859Z,86.33
2019-05-26T04:18:38.842Z,86.33
2019-05-26T04:19:38.809Z,86.05
2019-05-26T04:20:38.816Z,86.24
2019-05-26T04:21:38.802Z,86.33
2019-05-26T04:22:38.768Z,86.33
2019-05-26T04:23:38.746Z,86.33
2019-05-26T04:24:38.729Z,86.43
2019-05-26T04:25:38.714Z,86.43
2019-05-26T04:26:38.709Z,86.43
2019-05-26T04:27:38.679Z,86.61
2019-05-26T04:28:38.670Z,86.61
2019-05-26T04:29:38.646Z,86.43
2019-05-26T04:30:38.637Z,85.95
2019-05-26T04:31:38.615Z,86.43
2019-05-26T04:32:38.598Z,86.61
2019-05-26T04:33:38.582Z,86.66
2019-05-26T04:34:38.559Z,86.57
2019-05-26T04:35:38.551Z,86.66
2019-05-26T04:36:38.534Z,86.85
2019-05-26T04:37:38.517Z,86.66
2019-05-26T04:38:38.501Z,86.85
2019-05-26T04:39:38.483Z,86.66
2019-05-26T04:40:38.482Z,86.38
2019-05-26T04:41:38.450Z,86.66
2019-05-26T04:42:38.434Z,86.47
2019-05-26T04:43:38.419Z,86.66
2019-05-26T04:44:38.402Z,86.66
2019-05-26T04:45:38.388Z,86.90
2019-05-26T04:46:38.364Z,86.99
2019-05-26T04:47:38.367Z,87.08
2019-05-26T04:48:38.338Z,86.90
2019-05-26T04:49:38.320Z,86.90
2019-05-26T04:50:38.306Z,86.99
2019-05-26T04:51:38.290Z,86.99
2019-05-26T04:52:38.275Z,86.99
2019-05-26T04:53:38.258Z,86.99
2019-05-26T04:54:38.270Z,86.80
2019-05-26T04:55:38.244Z,86.90
2019-05-26T04:56:38.211Z,86.80
2019-05-26T04:57:38.194Z,86.90
2019-05-26T04:58:38.179Z,86.94
2019-05-26T04:59:38.170Z,86.94
2019-05-26T05:00:38.153Z,86.94
2019-05-26T05:01:38.131Z,86.46
2019-05-26T05:02:38.115Z,87.03
2019-05-26T05:03:38.100Z,86.94
2019-05-26T05:04:38.076Z,86.94
2019-05-26T05:05:38.062Z,87.03
2019-05-26T05:06:38.050Z,86.98
2019-05-26T05:07:38.057Z,86.84
2019-05-26T05:08:38.038Z,86.88
2019-05-26T05:09:38.024Z,87.07
2019-05-26T05:10:42.389Z,86.69
2019-05-26T05:11:37.977Z,86.79
2019-05-26T05:12:38.033Z,86.79
2019-05-26T05:13:37.957Z,86.79
2019-05-26T05:14:37.924Z,87.07
2019-05-26T05:15:37.931Z,87.07
2019-05-26T05:16:37.895Z,87.02
2019-05-26T05:17:37.886Z,87.12
2019-05-26T05:18:37.884Z,86.55
2019-05-26T05:19:37.871Z,86.65
2019-05-26T05:20:37.853Z,86.45
2019-05-26T05:21:37.823Z,86.65
2019-05-26T05:22:37.806Z,86.55
2019-05-26T05:23:37.789Z,86.69
2019-05-26T05:24:37.779Z,86.59
2019-05-26T05:25:37.768Z,86.30
2019-05-26T05:26:37.763Z,86.40
2019-05-26T05:27:37.751Z,86.30
2019-05-26T05:28:37.723Z,86.49
2019-05-26T05:29:37.711Z,86.49
2019-05-26T05:30:37.714Z,85.83
2019-05-26T05:31:37.673Z,86.16
2019-05-26T05:32:37.660Z,85.97
2019-05-26T05:33:37.644Z,85.97
2019-05-26T05:34:37.654Z,85.87
2019-05-26T05:35:37.612Z,85.49
2019-05-26T05:36:37.597Z,85.34
2019-05-26T05:37:37.585Z,85.21
2019-05-26T05:38:37.565Z,85.15
2019-05-26T05:39:37.569Z,85.34
2019-05-26T05:40:37.572Z,84.96
2019-05-26T05:41:37.531Z,84.96
2019-05-26T05:42:37.517Z,84.86
2019-05-26T05:43:37.502Z,84.81
2019-05-26T05:44:37.482Z,84.33
2019-05-26T05:45:37.478Z,84.62
2019-05-26T05:46:37.462Z,84.43
2019-05-26T05:47:37.438Z,84.05
2019-05-26T05:48:37.429Z,84.14
2019-05-26T05:49:37.412Z,83.86
2019-05-26T05:50:39.333Z,83.57
2019-05-26T05:51:37.382Z,83.70
2019-05-26T05:52:37.383Z,83.13
2019-05-26T05:53:37.366Z,83.23
2019-05-26T05:54:37.346Z,82.75
2019-05-26T05:55:37.328Z,82.56
2019-05-26T05:56:37.330Z,82.56
2019-05-26T05:57:37.319Z,82.18
2019-05-26T05:58:37.289Z,82.37
2019-05-26T05:59:37.279Z,81.99
2019-05-26T06:00:37.257Z,81.79
2019-05-26T06:01:37.246Z,81.70
2019-05-26T06:02:37.236Z,81.65
2019-05-26T06:03:37.218Z,81.55
2019-05-26T06:04:37.203Z,81.26
2019-05-26T06:05:37.194Z,81.36
2019-05-26T06:06:37.182Z,81.07
2019-05-26T06:07:37.168Z,80.98
2019-05-26T06:08:37.146Z,80.79
2019-05-26T06:09:37.138Z,80.59
2019-05-26T06:10:37.136Z,80.40
2019-05-26T06:11:37.108Z,80.88
2019-05-26T06:12:37.103Z,80.11
2019-05-26T06:13:37.105Z,79.73
2019-05-26T06:14:37.072Z,80.06
2019-05-26T06:15:37.050Z,79.68
2019-05-26T06:16:37.042Z,79.39
2019-05-26T06:17:37.093Z,79.68
2019-05-26T06:18:37.018Z,79.87
2019-05-26T06:19:37.007Z,79.58
2019-05-26T06:20:37.011Z,79.68
2019-05-26T06:21:36.979Z,79.87
2019-05-26T06:22:36.984Z,78.86
2019-05-26T06:23:37.285Z,79.24
2019-05-26T06:24:36.944Z,79.14
2019-05-26T06:25:36.926Z,78.57
2019-05-26T06:26:36.916Z,78.19
2019-05-26T06:27:36.900Z,78.38
2019-05-26T06:28:36.889Z,77.80
2019-05-26T06:29:36.878Z,77.99
2019-05-26T06:30:36.864Z,77.80
2019-05-26T06:31:36.929Z,77.61
2019-05-26T06:32:36.830Z,77.90
2019-05-26T06:33:36.826Z,77.26
2019-05-26T06:34:36.810Z,77.17
2019-05-26T06:35:36.799Z,76.79
2019-05-26T06:36:36.786Z,76.79
2019-05-26T06:37:36.770Z,76.69
2019-05-26T06:38:36.786Z,76.02
2019-05-26T06:39:36.776Z,76.60
2019-05-26T06:40:36.751Z,75.96
2019-05-26T06:41:36.738Z,75.45
2019-05-26T06:42:36.707Z,75.48
2019-05-26T06:43:36.717Z,75.29
2019-05-26T06:44:52.583Z,75.10
2019-05-26T06:45:36.748Z,74.62
2019-05-26T06:46:36.657Z,74.91
2019-05-26T06:47:36.662Z,74.52
2019-05-26T06:48:36.637Z,74.91
2019-05-26T06:49:36.693Z,74.52
2019-05-26T06:50:36.611Z,74.72
2019-05-26T06:51:36.604Z,74.27
2019-05-26T06:52:36.592Z,73.70
2019-05-26T06:53:37.654Z,73.51
2019-05-26T06:54:36.569Z,72.94
2019-05-26T06:55:36.561Z,73.13
2019-05-26T06:56:36.554Z,73.32
2019-05-26T06:57:36.545Z,73.13
2019-05-26T06:58:36.519Z,73.03
2019-05-26T06:59:36.521Z,72.84
2019-05-26T07:00:36.498Z,72.74
2019-05-26T07:01:36.489Z,72.45
2019-05-26T07:02:36.490Z,72.17
2019-05-26T07:03:36.462Z,71.98
2019-05-26T07:04:36.447Z,72.39
2019-05-26T07:05:36.451Z,71.88
2019-05-26T07:06:36.427Z,72.20
2019-05-26T07:07:36.412Z,72.30
2019-05-26T07:08:36.431Z,71.92
2019-05-26T07:09:36.392Z,71.82
2019-05-26T07:10:36.380Z,71.53
2019-05-26T07:11:50.471Z,71.44
2019-05-26T07:12:36.362Z,71.05
2019-05-26T07:13:36.400Z,71.25
2019-05-26T07:14:36.335Z,71.15
2019-05-26T07:15:36.327Z,71.28
2019-05-26T07:16:38.398Z,70.99
2019-05-26T07:17:36.309Z,70.51
2019-05-26T07:18:36.295Z,70.23
2019-05-26T07:19:36.285Z,70.42
2019-05-26T07:20:36.289Z,70.23
2019-05-26T07:21:36.270Z,69.46
2019-05-26T07:22:36.250Z,68.88
2019-05-26T07:23:36.240Z,68.50
2019-05-26T07:24:36.233Z,68.69
2019-05-26T07:25:36.222Z,68.88
2019-05-26T07:26:36.242Z,68.82
2019-05-26T07:27:36.198Z,68.63
2019-05-26T07:28:36.207Z,69.01
2019-05-26T07:29:36.176Z,68.82
2019-05-26T07:30:36.236Z,68.91
2019-05-26T07:31:36.164Z,68.47
2019-05-26T07:32:36.144Z,68.57
2019-05-26T07:33:36.159Z,67.70
2019-05-26T07:34:36.141Z,67.80
2019-05-26T07:35:36.121Z,67.41
2019-05-26T07:36:36.109Z,67.61
2019-05-26T07:37:36.179Z,67.61
2019-05-26T07:38:36.087Z,67.41
2019-05-26T07:39:36.082Z,67.45
2019-05-26T07:40:36.074Z,67.64
2019-05-26T07:41:36.076Z,67.45
2019-05-26T07:42:36.055Z,67.07
2019-05-26T07:43:36.048Z,66.97
2019-05-26T07:44:36.037Z,66.20
2019-05-26T07:45:36.030Z,66.33
2019-05-26T07:46:36.021Z,66.04
2019-05-26T07:47:36.020Z,66.14
2019-05-26T07:48:36.373Z,66.14
2019-05-26T07:49:36.009Z,65.75
2019-05-26T07:50:35.991Z,65.78
2019-05-26T07:51:35.977Z,65.50
2019-05-26T07:52:36.000Z,64.82
2019-05-26T07:53:35.966Z,63.99
2019-05-26T07:54:35.967Z,63.70
2019-05-26T07:55:35.940Z,63.60
2019-05-26T07:56:35.943Z,63.60
2019-05-26T07:57:35.923Z,63.31
2019-05-26T07:58:35.921Z,62.83
2019-05-26T07:59:35.911Z,62.45
2019-05-26T08:00:35.974Z,62.45
2019-05-26T08:01:36.621Z,62.77
2019-05-26T08:02:35.889Z,62.38
2019-05-26T08:03:36.271Z,61.80
2019-05-26T08:04:35.873Z,62.00
2019-05-26T08:05:35.863Z,62.00
2019-05-26T08:06:35.858Z,61.80
2019-05-26T08:07:35.885Z,60.49
2019-05-26T08:08:35.876Z,60.58
2019-05-26T08:09:35.835Z,60.42
2019-05-26T08:10:35.826Z,59.55
2019-05-26T08:11:35.821Z,59.84
2019-05-26T08:12:35.816Z,59.39
2019-05-26T08:13:35.811Z,59.10
2019-05-26T08:14:35.805Z,58.23
2019-05-26T08:15:35.805Z,57.94
2019-05-26T08:16:35.799Z,57.49
2019-05-26T08:17:35.792Z,57.39
2019-05-26T08:18:35.775Z,56.91
2019-05-26T08:19:35.778Z,56.43
2019-05-26T08:20:35.788Z,55.88
2019-05-26T08:21:35.773Z,55.20
2019-05-26T08:22:35.758Z,54.72
2019-05-26T08:23:35.762Z,54.82
2019-05-26T08:24:35.762Z,54.53
2019-05-26T08:25:35.757Z,53.78
2019-05-26T08:26:35.740Z,53.56
2019-05-26T08:27:35.750Z,52.89
2019-05-26T08:28:35.719Z,53.20
2019-05-26T08:29:35.716Z,52.43
2019-05-26T08:30:35.709Z,52.33
2019-05-26T08:31:35.714Z,52.53
2019-05-26T08:32:35.706Z,52.23
2019-05-26T08:33:35.703Z,52.53
2019-05-26T08:34:35.695Z,52.14
2019-05-26T08:35:35.707Z,52.33
2019-05-26T08:36:35.702Z,51.78
2019-05-26T08:37:35.677Z,51.78
2019-05-26T08:38:35.679Z,51.68
2019-05-26T08:39:35.671Z,51.78
2019-05-26T08:40:35.662Z,51.51
2019-05-26T08:41:35.664Z,51.42
2019-05-26T08:42:44.152Z,50.48
2019-05-26T08:43:35.716Z,50.57
2019-05-26T08:44:35.642Z,49.82
2019-05-26T08:45:35.817Z,50.02
2019-05-26T08:46:35.662Z,49.34
2019-05-26T08:47:35.625Z,49.05
2019-05-26T08:48:35.627Z,49.37
2019-05-26T08:49:35.616Z,48.88
2019-05-26T08:50:35.617Z,48.32
2019-05-26T08:51:35.618Z,48.13
2019-05-26T08:52:35.611Z,47.67
2019-05-26T08:53:35.605Z,46.60
2019-05-26T08:54:35.601Z,46.99
2019-05-26T08:55:35.598Z,46.70
2019-05-26T08:56:35.595Z,46.92
2019-05-26T08:57:35.591Z,46.43
2019-05-26T08:58:35.583Z,46.04
2019-05-26T08:59:35.585Z,46.04
2019-05-26T09:00:35.586Z,46.24
2019-05-26T09:01:35.575Z,46.14
2019-05-26T09:02:35.571Z,45.85
2019-05-26T09:03:35.569Z,45.65
2019-05-26T09:04:35.564Z,45.37
2019-05-26T09:05:35.560Z,45.29
2019-05-26T09:06:35.558Z,44.90
2019-05-26T09:07:35.553Z,45.00
2019-05-26T09:08:35.550Z,44.88
2019-05-26T09:09:35.589Z,44.49
2019-05-26T09:10:35.533Z,44.88
2019-05-26T09:11:35.539Z,45.27
2019-05-26T09:12:35.526Z,44.98
2019-05-26T09:13:35.567Z,45.17
2019-05-26T09:14:35.518Z,44.88
2019-05-26T09:15:35.635Z,44.68
2019-05-26T09:16:35.515Z,44.78
2019-05-26T09:17:35.571Z,44.40
2019-05-26T09:18:35.511Z,44.01
2019-05-26T09:19:35.525Z,44.40
2019-05-26T09:20:35.566Z,44.20
2019-05-26T09:21:35.495Z,44.68
2019-05-26T09:22:35.743Z,44.68
2019-05-26T09:23:35.493Z,44.51
2019-05-26T09:24:35.481Z,43.84
2019-05-26T09:25:35.481Z,43.26
2019-05-26T09:26:35.491Z,42.96
2019-05-26T09:27:35.468Z,42.79
2019-05-26T09:28:35.464Z,42.50
2019-05-26T09:29:35.464Z,42.11
2019-05-26T09:30:35.458Z,42.60
2019-05-26T09:31:35.527Z,42.21
2019-05-26T09:32:35.461Z,42.21
2019-05-26T09:33:35.454Z,42.30
2019-05-26T09:34:35.447Z,42.21
2019-05-26T09:35:35.436Z,42.40
2019-05-26T09:36:35.432Z,42.50
2019-05-26T09:37:35.429Z,42.13
2019-05-26T09:38:35.429Z,41.84
2019-05-26T09:39:35.578Z,41.74
2019-05-26T09:40:35.429Z,41.84
2019-05-26T09:41:35.429Z,41.64
2019-05-26T09:42:35.415Z,41.55
2019-05-26T09:43:35.417Z,41.57
2019-05-26T09:44:35.409Z,41.57
2019-05-26T09:45:35.421Z,41.57
2019-05-26T09:46:35.403Z,40.31
2019-05-26T09:47:35.395Z,39.82
2019-05-26T09:48:35.399Z,39.92
2019-05-26T09:49:35.397Z,39.82
2019-05-26T09:50:35.404Z,40.11
2019-05-26T09:51:35.402Z,39.43
2019-05-26T09:52:35.376Z,39.24
2019-05-26T09:53:35.392Z,39.72
2019-05-26T09:54:35.374Z,39.90
2019-05-26T09:55:35.374Z,39.90
2019-05-26T09:56:35.369Z,39.51
2019-05-26T09:57:35.367Z,39.51
2019-05-26T09:58:35.377Z,40.00
2019-05-26T09:59:35.359Z,39.61
2019-05-26T10:00:35.366Z,39.24
2019-05-26T10:01:35.353Z,39.04
2019-05-26T10:02:35.350Z,38.85
2019-05-26T10:03:35.358Z,38.65
2019-05-26T10:04:35.346Z,38.07
2019-05-26T10:05:35.410Z,38.07
2019-05-26T10:06:35.341Z,38.17
2019-05-26T10:07:35.352Z,38.65
2019-05-26T10:08:35.332Z,38.65
2019-05-26T10:09:35.330Z,38.73
2019-05-26T10:10:35.332Z,38.64
2019-05-26T10:11:35.320Z,38.73
2019-05-26T10:12:35.323Z,38.95
2019-05-26T10:13:35.331Z,38.65
2019-05-26T10:14:35.331Z,38.27
2019-05-26T10:15:35.312Z,37.59
2019-05-26T10:16:35.324Z,37.57
2019-05-26T10:17:35.303Z,37.57
2019-05-26T10:18:35.292Z,37.57
2019-05-26T10:19:35.305Z,37.45
2019-05-26T10:20:35.296Z,37.76
2019-05-26T10:21:35.285Z,37.47
2019-05-26T10:22:35.298Z,37.66
2019-05-26T10:23:35.298Z,37.47
2019-05-26T10:24:35.277Z,37.37
2019-05-26T10:25:35.423Z,37.78
2019-05-26T10:26:35.269Z,37.01
2019-05-26T10:27:35.336Z,37.30
2019-05-26T10:28:35.263Z,36.81
2019-05-26T10:29:35.269Z,37.20
2019-05-26T10:30:35.263Z,36.81
2019-05-26T10:31:35.255Z,36.91
2019-05-26T10:32:35.609Z,37.01
2019-05-26T10:33:35.262Z,37.10
2019-05-26T10:34:35.267Z,36.91
2019-05-26T10:35:35.355Z,36.91
2019-05-26T10:36:35.233Z,37.01
2019-05-26T10:37:35.276Z,36.91
2019-05-26T10:38:35.249Z,36.81
2019-05-26T10:39:35.230Z,36.83
2019-05-26T10:40:35.227Z,36.93
2019-05-26T10:41:35.217Z,37.02
2019-05-26T10:42:35.277Z,36.93
2019-05-26T10:43:46.773Z,36.46
2019-05-26T10:44:35.243Z,36.94
2019-05-26T10:45:35.217Z,36.67
2019-05-26T10:46:35.209Z,36.28
2019-05-26T10:47:35.207Z,36.30
2019-05-26T10:48:35.221Z,36.41
2019-05-26T10:49:35.204Z,35.15
2019-05-26T10:50:35.223Z,35.53
2019-05-26T10:51:35.202Z,35.46
2019-05-26T10:52:35.209Z,35.55
2019-05-26T10:53:35.198Z,35.38
2019-05-26T10:54:35.195Z,34.89
2019-05-26T10:55:35.186Z,34.99
2019-05-26T10:56:35.186Z,34.79
2019-05-26T10:57:35.186Z,34.29
2019-05-26T10:58:35.186Z,34.37
2019-05-26T10:59:35.198Z,34.74
2019-05-26T11:00:35.179Z,35.33
2019-05-26T11:01:35.180Z,35.13
2019-05-26T11:02:35.175Z,35.70
2019-05-26T11:03:35.174Z,36.38
2019-05-26T11:04:35.171Z,36.18
2019-05-26T11:05:35.169Z,36.38
2019-05-26T11:06:35.185Z,36.28
2019-05-26T11:07:35.177Z,36.18
2019-05-26T11:08:35.157Z,36.47
2019-05-26T11:09:35.158Z,35.78
2019-05-26T11:10:35.155Z,36.26
2019-05-26T11:11:35.161Z,36.46
2019-05-26T11:12:35.151Z,36.54
2019-05-26T11:13:35.147Z,36.73
2019-05-26T11:14:35.159Z,36.63
2019-05-26T11:15:35.181Z,37.02
2019-05-26T11:16:35.144Z,37.04
2019-05-26T11:17:35.149Z,36.94
2019-05-26T11:18:35.141Z,37.06
2019-05-26T11:19:35.129Z,37.06
2019-05-26T11:20:35.133Z,36.79
2019-05-26T11:21:35.140Z,36.10
2019-05-26T11:22:35.128Z,35.80
2019-05-26T11:23:35.125Z,35.60
2019-05-26T11:24:35.132Z,35.31
2019-05-26T11:25:35.137Z,35.88
2019-05-26T11:26:35.131Z,36.26
2019-05-26T11:27:35.117Z,36.36
2019-05-26T11:28:35.107Z,36.46
2019-05-26T11:29:35.117Z,36.07
2019-05-26T11:30:35.117Z,36.38
2019-05-26T11:31:35.124Z,35.80
2019-05-26T11:32:35.112Z,35.81
2019-05-26T11:33:35.108Z,34.74
2019-05-26T11:34:35.144Z,34.45
2019-05-26T11:35:35.109Z,34.55
2019-05-26T11:36:35.103Z,34.35
2019-05-26T11:37:35.106Z,34.45
2019-05-26T11:38:35.120Z,34.24
2019-05-26T11:39:35.112Z,34.43
2019-05-26T11:40:35.105Z,34.82
2019-05-26T11:41:35.113Z,34.82
2019-05-26T11:42:35.103Z,34.70
2019-05-26T11:43:35.094Z,34.61
2019-05-26T11:44:35.093Z,34.59
2019-05-26T11:45:35.092Z,35.08
2019-05-26T11:46:35.103Z,35.37
2019-05-26T11:47:35.091Z,35.76
2019-05-26T11:48:35.101Z,35.57
2019-05-26T11:49:35.092Z,35.96
2019-05-26T11:50:35.083Z,35.86
2019-05-26T11:51:35.085Z,35.86
2019-05-26T11:52:35.081Z,35.66
2019-05-26T11:53:35.081Z,35.66
2019-05-26T11:54:35.086Z,35.97
2019-05-26T11:55:35.083Z,35.80
2019-05-26T11:56:35.080Z,35.70
2019-05-26T11:57:36.806Z,35.61
2019-05-26T11:58:35.088Z,34.74
2019-05-26T11:59:35.078Z,34.47
2019-05-26T12:00:35.095Z,34.56
2019-05-26T12:01:35.080Z,34.47
2019-05-26T12:02:35.084Z,34.17
2019-05-26T12:03:35.087Z,33.88
2019-05-26T12:04:35.088Z,33.49
2019-05-26T12:05:35.085Z,33.69
2019-05-26T12:06:35.086Z,33.88
2019-05-26T12:07:35.088Z,33.29
2019-05-26T12:08:35.100Z,32.89
2019-05-26T12:09:35.087Z,32.97
2019-05-26T12:10:35.092Z,33.36
2019-05-26T12:11:35.092Z,33.56
2019-05-26T12:12:35.088Z,33.85
2019-05-26T12:13:36.782Z,33.64
2019-05-26T12:14:35.700Z,33.64
2019-05-26T12:15:35.092Z,34.20
2019-05-26T12:16:35.102Z,34.61
2019-05-26T12:17:35.089Z,34.90
2019-05-26T12:18:35.094Z,34.53
2019-05-26T12:19:35.099Z,34.53
2019-05-26T12:20:35.117Z,34.53
2019-05-26T12:21:35.097Z,33.85
2019-05-26T12:22:35.110Z,33.65
2019-05-26T12:23:35.119Z,33.48
2019-05-26T12:24:35.110Z,33.96
2019-05-26T12:25:35.096Z,33.48
2019-05-26T12:26:35.100Z,33.09
2019-05-26T12:27:35.097Z,32.78
2019-05-26T12:28:35.097Z,33.17
2019-05-26T12:29:35.099Z,33.46
2019-05-26T12:30:35.106Z,33.85
2019-05-26T12:31:35.266Z,33.75
2019-05-26T12:32:35.438Z,34.53
2019-05-26T12:33:35.120Z,33.48
2019-05-26T12:34:35.099Z,33.36
2019-05-26T12:35:35.101Z,33.46
2019-05-26T12:36:38.999Z,33.15
2019-05-26T12:37:35.101Z,33.23
2019-05-26T12:38:35.111Z,33.72
2019-05-26T12:39:35.112Z,34.48
2019-05-26T12:40:35.102Z,35.06
2019-05-26T12:41:37.392Z,35.06
2019-05-26T12:42:35.098Z,34.59
2019-05-26T12:43:35.098Z,34.98
2019-05-26T12:44:48.542Z,35.27
2019-05-26T12:45:35.116Z,34.69
2019-05-26T12:46:35.754Z,34.11
2019-05-26T12:47:35.103Z,34.38
2019-05-26T12:48:35.094Z,34.38
2019-05-26T12:49:35.109Z,34.27
2019-05-26T12:50:35.092Z,34.75
2019-05-26T12:51:35.094Z,34.85
2019-05-26T12:52:35.085Z,34.66